Time;durP1;ratioP1;P1;durP2;ratioP2;P2;SDS_P1;SDS_P2;PMS_P1;PMS_P2;Temp;Humidity;BMP_temperature;BMP_pressure;BME280_temperature;BME280_humidity;BME280_pressure;Samples;Min_cycle;Max_cycle;Signal;HPM_P1;HPM_P2
2022/08/19 00:00:45;;;;;;;10.60;9.30;;;;;;;20.05;77.71;99783.91;129998;1270;109118;-72
2022/08/19 00:03:51;;;;;;;9.30;8.40;;;;;;;20.03;77.93;99785.00;129937;1270;108879;-73
2022/08/19 00:06:56;;;;;;;10.00;8.90;;;;;;;20.04;77.94;99786.75;130060;1270;108509;-75
2022/08/19 00:10:02;;;;;;;10.30;9.30;;;;;;;20.02;77.98;99785.36;130088;1270;109078;-73
2022/08/19 00:13:07;;;;;;;11.50;9.40;;;;;;;20.04;77.87;99789.63;129985;1270;107716;-73
2022/08/19 00:16:12;;;;;;;9.90;8.90;;;;;;;20.01;77.94;99793.66;130102;1270;109014;-73
2022/08/19 00:19:18;;;;;;;9.80;8.70;;;;;;;19.97;77.95;99795.77;130026;1270;108845;-72
2022/08/19 00:22:24;;;;;;;10.70;8.80;;;;;;;19.95;78.10;99798.14;129989;1270;108864;-72
2022/08/19 00:25:29;;;;;;;10.30;9.30;;;;;;;19.94;78.22;99795.62;129972;1270;109661;-72
2022/08/19 00:28:35;;;;;;;11.20;9.60;;;;;;;19.95;78.27;99790.27;129945;1270;108444;-72
2022/08/19 00:31:41;;;;;;;10.90;9.30;;;;;;;19.95;78.30;99784.02;129930;1270;110162;-71
2022/08/19 00:34:47;;;;;;;9.90;8.90;;;;;;;19.92;78.26;99774.55;129864;1270;108932;-73
2022/08/19 00:37:52;;;;;;;12.80;8.70;;;;;;;19.86;78.37;99766.63;129873;1270;108775;-74
2022/08/19 00:40:58;;;;;;;9.70;8.70;;;;;;;19.81;78.55;99767.46;129803;1271;109571;-72
2022/08/19 00:44:07;;;;;;;9.60;8.60;;;;;;;19.78;78.55;99770.58;129882;1270;108739;-72
2022/08/19 00:47:12;;;;;;;11.60;9.30;;;;;;;19.77;78.69;99763.55;129873;1270;108434;-72
2022/08/19 00:50:20;;;;;;;10.70;9.60;;;;;;;19.78;78.87;99763.80;129977;1270;108794;-72
2022/08/19 00:53:29;;;;;;;10.10;9.00;;;;;;;19.76;78.89;99762.40;129990;1270;108453;-72
2022/08/19 00:56:36;;;;;;;10.00;8.60;;;;;;;19.75;78.87;99761.77;130020;1270;108667;-72
2022/08/19 00:59:45;;;;;;;8.60;7.60;;;;;;;19.72;79.00;99758.41;130024;1270;108347;-72
2022/08/19 01:02:50;;;;;;;10.10;8.50;;;;;;;19.72;79.11;99754.29;129977;1270;109091;-72
2022/08/19 01:05:56;;;;;;;9.70;8.80;;;;;;;19.73;79.11;99755.86;129973;1270;108668;-73
2022/08/19 01:09:02;;;;;;;10.20;9.20;;;;;;;19.74;79.15;99758.09;130160;1270;107547;-73
2022/08/19 01:12:09;;;;;;;12.10;10.10;;;;;;;19.72;79.18;99760.69;129973;1270;108520;-73
2022/08/19 01:15:18;;;;;;;9.50;8.30;;;;;;;19.69;79.27;99763.12;129976;1270;109092;-72
2022/08/19 01:18:24;;;;;;;8.30;7.50;;;;;;;19.66;79.43;99769.23;129979;1270;108632;-73
2022/08/19 01:21:35;;;;;;;9.60;8.60;;;;;;;19.64;79.36;99768.33;130192;1270;108830;-72
2022/08/19 01:24:41;;;;;;;11.00;9.00;;;;;;;19.63;79.37;99771.19;129965;1270;108881;-73
2022/08/19 01:27:49;;;;;;;9.40;8.50;;;;;;;19.64;79.53;99772.16;129973;1270;109174;-73
2022/08/19 01:30:56;;;;;;;11.20;10.10;;;;;;;19.63;79.26;99768.89;129989;1270;108581;-73
2022/08/19 01:34:03;;;;;;;11.80;9.30;;;;;;;19.59;79.65;99759.64;129847;1270;108933;-73
2022/08/19 01:37:11;;;;;;;9.30;8.30;;;;;;;19.58;79.68;99760.80;130013;1270;108600;-75
2022/08/19 01:40:17;;;;;;;10.30;9.30;;;;;;;19.55;79.67;99753.56;130114;1270;108811;-73
2022/08/19 01:43:22;;;;;;;10.90;9.50;;;;;;;19.51;79.49;99754.19;130038;1270;108914;-73
2022/08/19 01:46:28;;;;;;;10.80;9.80;;;;;;;19.44;79.52;99757.53;129963;1270;107875;-76
2022/08/19 01:49:33;;;;;;;11.60;10.10;;;;;;;19.42;79.77;99760.10;130156;1270;106937;-75
2022/08/19 01:52:40;;;;;;;9.90;8.90;;;;;;;19.40;79.79;99755.09;130083;1270;108902;-74
2022/08/19 01:55:48;;;;;;;10.50;9.40;;;;;;;19.35;79.81;99757.55;130082;1270;108910;-73
2022/08/19 01:58:57;;;;;;;10.80;8.80;;;;;;;19.29;79.86;99761.69;130141;1270;108684;-75
2022/08/19 02:02:05;;;;;;;10.70;9.60;;;;;;;19.23;79.95;99764.36;129956;1270;108725;-77
2022/08/19 02:05:13;;;;;;;10.20;9.30;;;;;;;19.19;80.00;99762.69;130098;1270;108686;-78
2022/08/19 02:08:18;;;;;;;11.50;10.10;;;;;;;19.21;80.08;99761.27;130006;1270;108725;-77
2022/08/19 02:11:27;;;;;;;10.20;9.20;;;;;;;19.20;80.19;99756.15;130039;1270;108815;-77
2022/08/19 02:14:34;;;;;;;9.40;8.30;;;;;;;19.20;80.19;99744.86;130012;1270;108977;-78
2022/08/19 02:17:40;;;;;;;9.50;8.60;;;;;;;19.19;80.11;99739.60;130164;1270;108729;-79
2022/08/19 02:20:46;;;;;;;10.70;9.10;;;;;;;19.16;80.04;99737.77;130221;1270;108916;-82
2022/08/19 02:23:53;;;;;;;12.00;10.80;;;;;;;19.11;80.26;99738.13;130170;1270;108607;-81
2022/08/19 02:26:59;;;;;;;11.40;10.10;;;;;;;19.10;80.55;99735.11;130190;1270;108971;-81
2022/08/19 02:30:08;;;;;;;10.40;9.20;;;;;;;19.05;80.66;99735.61;129962;1270;108868;-82
2022/08/19 02:33:14;;;;;;;11.00;8.90;;;;;;;19.02;80.65;99734.42;130066;1270;108920;-81
2022/08/19 02:36:20;;;;;;;10.70;9.20;;;;;;;19.03;80.63;99735.29;130031;1270;107507;-78
2022/08/19 02:39:26;;;;;;;10.20;9.10;;;;;;;19.08;80.75;99732.84;130019;1270;108830;-81
2022/08/19 02:42:32;;;;;;;10.70;9.60;;;;;;;19.09;80.55;99732.33;130019;1270;108885;-82
2022/08/19 02:45:40;;;;;;;11.30;10.00;;;;;;;19.04;80.63;99735.52;130008;1270;108933;-78
2022/08/19 02:48:45;;;;;;;9.60;8.60;;;;;;;18.99;80.66;99739.52;129997;1270;108117;-78
2022/08/19 02:51:51;;;;;;;9.70;8.70;;;;;;;18.96;81.00;99740.46;130021;1270;107865;-78
2022/08/19 02:54:57;;;;;;;9.80;8.80;;;;;;;18.97;81.14;99744.77;130023;1270;108668;-78
2022/08/19 02:58:02;;;;;;;11.10;9.30;;;;;;;18.99;81.04;99741.80;130103;1270;109030;-75
2022/08/19 03:01:08;;;;;;;11.40;10.10;;;;;;;18.99;81.21;99730.33;130083;1270;108587;-69
2022/08/19 03:04:16;;;;;;;11.70;10.50;;;;;;;18.99;81.29;99726.11;129885;1271;108806;-69
2022/08/19 03:07:21;;;;;;;9.90;8.90;;;;;;;18.98;81.36;99723.48;129718;1270;109288;-68
2022/08/19 03:10:26;;;;;;;10.70;8.70;;;;;;;18.94;81.40;99722.73;129676;1270;108768;-69
2022/08/19 03:13:32;;;;;;;10.70;9.60;;;;;;;18.89;81.43;99723.27;129660;1269;108788;-68
2022/08/19 03:16:44;;;;;;;13.00;10.40;;;;;;;18.88;81.38;99722.40;129732;1270;108864;-69
2022/08/19 03:19:48;;;;;;;;;;;;;;;18.93;81.74;99724.23;129830;1270;109317;-68
2022/08/19 03:22:53;;;;;;;13.60;10.40;;;;;;;18.96;81.95;99731.81;129823;1270;108687;-68
2022/08/19 03:25:59;;;;;;;10.40;9.30;;;;;;;18.97;81.92;99728.77;129862;1270;109585;-69
2022/08/19 03:29:06;;;;;;;9.80;8.80;;;;;;;18.95;81.96;99733.56;129897;1270;108969;-69
2022/08/19 03:32:12;;;;;;;15.50;10.90;;;;;;;18.96;82.23;99736.73;130067;1270;108883;-69
2022/08/19 03:35:19;;;;;;;11.70;9.90;;;;;;;19.00;82.41;99736.85;129833;1270;108240;-73
2022/08/19 03:38:24;;;;;;;13.80;11.00;;;;;;;19.04;82.39;99732.33;130030;1270;108751;-69
2022/08/19 03:41:32;;;;;;;11.10;9.60;;;;;;;19.09;82.80;99729.83;129874;1270;108590;-68
2022/08/19 03:44:38;;;;;;;12.20;9.10;;;;;;;19.16;82.96;99731.89;129832;1270;108612;-69
2022/08/19 03:47:44;;;;;;;11.00;9.60;;;;;;;19.20;82.84;99729.09;129845;1270;109556;-69
2022/08/19 03:50:49;;;;;;;11.80;9.50;;;;;;;19.26;82.86;99733.13;129911;1270;109683;-68
2022/08/19 03:53:56;;;;;;;14.60;10.50;;;;;;;19.34;82.76;99729.92;129792;1270;108642;-69
2022/08/19 03:57:02;;;;;;;11.50;10.30;;;;;;;19.42;82.85;99727.35;129896;1270;109018;-68
2022/08/19 04:00:10;;;;;;;9.80;8.80;;;;;;;19.50;82.98;99722.67;129901;1270;109496;-68
2022/08/19 04:03:18;;;;;;;11.90;9.20;;;;;;;19.59;82.88;99717.25;129861;1270;109044;-68
2022/08/19 04:06:25;;;;;;;16.40;11.20;;;;;;;19.67;82.96;99720.13;129806;1271;108781;-68
2022/08/19 04:09:31;;;;;;;12.50;10.10;;;;;;;19.77;83.05;99723.33;129915;1270;108632;-69
2022/08/19 04:12:36;;;;;;;10.90;9.80;;;;;;;19.85;83.01;99730.97;129842;1270;107825;-69
2022/08/19 04:15:44;;;;;;;10.10;9.10;;;;;;;19.93;83.10;99736.63;129935;1270;108731;-68
2022/08/19 04:18:50;;;;;;;11.60;10.00;;;;;;;20.04;83.26;99743.86;128750;1270;1532433;-68
2022/08/19 04:21:57;;;;;;;11.50;10.20;;;;;;;20.14;83.18;99740.77;129929;1270;108355;-68
2022/08/19 04:25:02;;;;;;;12.20;11.00;;;;;;;20.25;83.16;99740.68;129800;1270;110499;-68
2022/08/19 04:28:09;;;;;;;12.50;10.30;;;;;;;20.30;83.21;99734.27;129835;1270;108766;-69
2022/08/19 04:31:18;;;;;;;10.80;9.20;;;;;;;20.37;83.39;99724.77;129855;1270;108632;-69
2022/08/19 04:34:26;;;;;;;13.10;10.40;;;;;;;20.47;83.37;99722.31;129845;1270;107576;-69
2022/08/19 04:37:33;;;;;;;11.60;9.60;;;;;;;20.59;83.33;99731.63;129825;1270;107239;-69
2022/08/19 04:44:09;;;;;;;10.80;9.20;;;;;;;21.12;82.89;99749.60;129696;1270;107760;-67
2022/08/19 04:47:15;;;;;;;9.30;8.30;;;;;;;21.33;82.68;99749.19;129838;1270;108099;-68
2022/08/19 04:50:22;;;;;;;13.30;10.30;;;;;;;21.53;82.61;99747.05;129937;1270;108798;-69
2022/08/19 04:53:29;;;;;;;12.60;9.70;;;;;;;21.76;82.47;99748.84;129990;1270;108504;-68
2022/08/19 04:56:34;;;;;;;11.40;10.10;;;;;;;21.97;82.33;99747.48;129937;1270;108865;-66
2022/08/19 04:59:41;;;;;;;11.00;9.90;;;;;;;22.14;82.04;99740.44;130070;1270;109527;-66
2022/08/19 05:02:46;;;;;;;10.50;8.80;;;;;;;22.28;81.72;99744.36;130018;1271;108766;-66
2022/08/19 05:05:52;;;;;;;10.60;8.70;;;;;;;22.41;81.70;99738.80;129925;1270;109768;-67
2022/08/19 05:08:57;;;;;;;11.70;9.20;;;;;;;22.58;81.50;99728.29;130024;1270;107142;-67
2022/08/19 05:12:03;;;;;;;11.00;9.90;;;;;;;22.77;81.27;99730.61;129969;1270;107694;-66
2022/08/19 05:15:10;;;;;;;12.80;9.80;;;;;;;22.91;80.96;99729.92;129965;1271;109829;-68
2022/08/19 05:25:08;;;;;;;12.60;9.00;;;;;;;23.16;80.72;99724.64;129901;1270;108646;-67
2022/08/19 05:28:13;;;;;;;11.10;9.90;;;;;;;23.33;80.71;99729.73;130018;1270;107040;-66
2022/08/19 05:31:19;;;;;;;10.60;9.60;;;;;;;23.50;80.35;99732.91;129968;1271;109635;-69
2022/08/19 05:34:26;;;;;;;11.60;9.10;;;;;;;23.67;80.13;99736.89;129994;1271;107176;-67
2022/08/19 05:37:32;;;;;;;13.50;9.10;;;;;;;23.79;80.03;99739.09;129890;1273;108741;-69
2022/08/19 05:40:38;;;;;;;9.00;8.10;;;;;;;23.90;79.82;99733.25;130009;1270;108749;-70
2022/08/19 05:43:44;;;;;;;8.60;7.80;;;;;;;24.03;79.63;99732.52;129976;1270;107891;-69
2022/08/19 05:46:52;;;;;;;10.50;8.80;;;;;;;24.14;79.29;99732.10;129880;1270;109768;-70
2022/08/19 05:49:58;;;;;;;10.80;9.70;;;;;;;24.22;79.19;99732.30;129905;1270;108669;-69
2022/08/19 05:53:03;;;;;;;11.20;9.20;;;;;;;24.26;78.75;99739.15;129891;1270;109609;-70
2022/08/19 05:56:10;;;;;;;10.00;9.00;;;;;;;24.28;78.63;99749.16;129830;1271;108670;-69
2022/08/19 05:59:17;;;;;;;12.00;9.10;;;;;;;24.31;78.67;99754.31;129863;1270;109558;-70
2022/08/19 06:02:23;;;;;;;14.00;9.60;;;;;;;24.34;78.25;99752.39;130040;1270;108719;-70
2022/08/19 06:05:28;;;;;;;10.70;9.10;;;;;;;24.38;78.13;99748.11;129885;1270;109501;-69
2022/08/19 06:08:34;;;;;;;11.30;9.50;;;;;;;24.43;77.90;99751.56;129801;1271;108731;-70
2022/08/19 06:11:43;;;;;;;12.40;9.90;;;;;;;24.45;77.60;99753.05;129971;1270;109151;-70
2022/08/19 06:14:51;;;;;;;10.20;9.20;;;;;;;24.45;77.59;99751.02;130014;1270;108619;-70
2022/08/19 06:17:57;;;;;;;11.30;9.00;;;;;;;24.49;77.72;99745.80;130029;1270;108718;-71
2022/08/19 06:21:04;;;;;;;9.40;8.30;;;;;;;24.52;77.26;99736.35;129977;1270;108646;-70
2022/08/19 06:24:11;;;;;;;10.30;8.80;;;;;;;24.54;76.98;99729.66;129937;1271;108581;-71
2022/08/19 06:27:17;;;;;;;12.70;9.30;;;;;;;24.58;76.85;99743.16;129940;1270;108722;-70
2022/08/19 06:30:22;;;;;;;10.20;9.10;;;;;;;24.67;76.77;99746.20;129988;1270;108525;-70
2022/08/19 06:33:28;;;;;;;11.20;9.00;;;;;;;24.76;76.69;99747.37;129762;1271;109544;-69
2022/08/19 06:36:35;;;;;;;11.60;9.60;;;;;;;24.85;76.59;99741.71;129879;1271;108927;-69
2022/08/19 06:39:43;;;;;;;10.60;9.20;;;;;;;24.92;76.00;99741.83;129882;1271;110565;-69
2022/08/19 06:42:48;;;;;;;11.00;8.80;;;;;;;24.95;76.18;99745.61;129722;1271;108832;-70
2022/08/19 06:45:54;;;;;;;10.40;8.80;;;;;;;25.00;75.96;99752.60;129785;1271;108686;-70
2022/08/19 06:49:00;;;;;;;10.00;8.90;;;;;;;25.08;75.96;99753.10;129785;1271;108927;-70
2022/08/19 06:52:06;;;;;;;10.40;8.70;;;;;;;25.15;75.63;99749.83;129872;1271;108748;-70
2022/08/19 06:55:11;;;;;;;11.80;9.00;;;;;;;25.23;75.37;99751.84;129857;1272;111763;-70
2022/08/19 06:58:17;;;;;;;11.20;9.40;;;;;;;25.30;75.49;99747.16;130037;1271;108853;-69
2022/08/19 07:01:22;;;;;;;10.80;9.70;;;;;;;25.36;75.09;99742.49;129946;1270;108902;-70
2022/08/19 07:04:31;;;;;;;11.80;8.60;;;;;;;25.39;74.78;99744.98;130007;1270;108435;-70
2022/08/19 07:07:37;;;;;;;11.40;9.40;;;;;;;25.45;74.53;99740.48;130063;1270;108817;-70
2022/08/19 07:10:46;;;;;;;11.00;9.80;;;;;;;25.53;74.18;99738.39;130074;1270;108688;-70
2022/08/19 07:13:52;;;;;;;12.00;9.40;;;;;;;25.61;73.97;99739.20;130088;1270;108758;-70
2022/08/19 07:16:59;;;;;;;10.60;8.70;;;;;;;25.70;73.98;99741.55;130185;1270;108625;-69
2022/08/19 07:20:07;;;;;;;9.90;8.90;;;;;;;25.77;73.08;99735.90;130112;1270;108730;-71
2022/08/19 07:23:13;;;;;;;10.60;9.40;;;;;;;25.86;73.32;99737.18;130129;1270;108837;-70
2022/08/19 07:26:20;;;;;;;10.30;9.30;;;;;;;25.95;72.67;99746.27;130015;1270;108855;-70
2022/08/19 07:29:26;;;;;;;10.10;9.00;;;;;;;26.02;73.12;99748.65;129994;1271;107294;-70
2022/08/19 07:32:32;;;;;;;10.00;8.30;;;;;;;26.11;72.73;99746.44;129881;1270;108616;-70
2022/08/19 07:35:37;;;;;;;9.20;8.30;;;;;;;26.20;72.32;99743.67;129927;1270;109357;-70
2022/08/19 07:38:46;;;;;;;11.80;8.50;;;;;;;26.31;72.03;99738.89;129972;1270;108669;-70
2022/08/19 07:41:52;;;;;;;10.50;8.30;;;;;;;26.41;71.46;99737.34;129920;1270;109798;-70
2022/08/19 07:44:58;;;;;;;9.20;8.30;;;;;;;26.50;71.16;99724.98;129946;1270;108945;-70
2022/08/19 07:48:04;;;;;;;9.00;8.10;;;;;;;26.54;70.52;99725.09;129962;1270;107470;-70
2022/08/19 07:51:11;;;;;;;12.00;8.70;;;;;;;26.55;70.60;99725.38;129951;1270;108665;-70
2022/08/19 07:54:18;;;;;;;12.80;8.40;;;;;;;26.54;70.52;99737.64;129977;1270;109158;-70
2022/08/19 07:57:23;;;;;;;9.60;8.10;;;;;;;26.55;70.58;99749.00;129922;1270;109707;-70
2022/08/19 08:00:29;;;;;;;9.00;8.10;;;;;;;26.55;70.09;99745.07;130028;1270;108540;-70
2022/08/19 08:10:20;;;;;;;9.20;8.30;;;;;;;26.69;69.90;99742.05;130753;1270;108660;-71
2022/08/19 08:13:26;;;;;;;10.70;8.40;;;;;;;26.71;69.49;99743.69;130440;1270;108626;-70
2022/08/19 08:16:32;;;;;;;10.00;7.50;;;;;;;26.77;69.65;99742.66;129950;1271;108157;-70
2022/08/19 08:19:39;;;;;;;9.30;7.60;;;;;;;26.80;69.31;99740.08;129916;1271;108863;-70
2022/08/19 08:26:10;;;;;;;9.60;8.00;;;;;;;26.96;68.86;99764.51;129964;1271;109654;-70
2022/08/19 08:29:16;;;;;;;11.50;8.00;;;;;;;26.98;68.17;99771.95;130010;1271;108968;-71
2022/08/19 08:32:21;;;;;;;10.00;8.10;;;;;;;27.00;68.31;99770.75;129969;1271;108656;-70
2022/08/19 08:35:26;;;;;;;11.60;7.70;;;;;;;27.01;68.19;99772.06;130004;1270;109667;-70
2022/08/19 08:38:34;;;;;;;9.10;8.10;;;;;;;27.04;68.18;99773.66;129968;1270;108705;-70
2022/08/19 08:41:46;;;;;;;9.60;8.20;;;;;;;27.07;67.88;99771.90;130098;1270;108525;-71
2022/08/19 08:44:58;;;;;;;9.00;8.00;;;;;;;27.08;67.41;99774.96;129964;1271;108671;-70
2022/08/19 08:48:13;;;;;;;8.60;7.90;;;;;;;27.09;67.28;99772.16;130087;1270;109409;-70
2022/08/19 08:51:25;;;;;;;9.00;8.20;;;;;;;27.12;67.36;99769.86;130102;1270;107801;-71
2022/08/19 08:54:36;;;;;;;9.10;8.20;;;;;;;27.13;67.17;99768.27;129967;1270;108604;-70
2022/08/19 08:57:56;;;;;;;9.00;8.10;;;;;;;27.17;67.09;99767.77;129992;1271;108305;-71
2022/08/19 09:01:03;;;;;;;9.30;8.10;;;;;;;27.21;66.20;99771.61;130065;1271;109672;-70
2022/08/19 09:04:11;;;;;;;9.90;8.00;;;;;;;27.24;66.55;99774.03;129963;1271;108435;-70
2022/08/19 09:07:27;;;;;;;10.40;8.00;;;;;;;27.25;66.36;99773.77;129928;1270;109589;-71
2022/08/19 09:10:38;;;;;;;9.10;8.00;;;;;;;27.28;66.01;99766.76;130139;1271;108776;-71
2022/08/19 09:13:57;;;;;;;8.60;7.80;;;;;;;27.28;65.82;99773.33;130692;1271;108845;-71
2022/08/19 09:17:07;;;;;;;9.80;7.70;;;;;;;27.29;65.59;99777.01;130085;1271;108734;-70
2022/08/19 09:20:20;;;;;;;8.50;7.30;;;;;;;27.26;65.48;99777.22;129960;1271;108446;-71
2022/08/19 09:23:25;;;;;;;8.40;7.50;;;;;;;27.29;65.14;99777.23;129976;1270;108641;-70
2022/08/19 09:26:32;;;;;;;9.40;7.40;;;;;;;27.35;64.75;99776.23;129992;1271;109794;-71
2022/08/19 09:29:37;;;;;;;8.80;6.90;;;;;;;27.45;64.50;99776.01;129974;1270;109319;-70
2022/08/19 09:32:43;;;;;;;8.30;6.90;;;;;;;27.51;64.13;99773.30;129952;1270;108991;-71
2022/08/19 09:35:48;;;;;;;9.20;7.00;;;;;;;27.55;64.40;99776.91;129961;1270;108750;-71
2022/08/19 09:38:54;;;;;;;7.90;7.10;;;;;;;27.64;63.87;99776.77;130039;1270;108695;-70
2022/08/19 09:41:59;;;;;;;7.90;7.10;;;;;;;27.69;63.72;99775.61;129921;1270;108339;-71
2022/08/19 09:45:06;;;;;;;9.30;7.20;;;;;;;27.74;64.11;99774.83;129973;1270;108692;-70
2022/08/19 09:48:11;;;;;;;9.50;6.90;;;;;;;27.81;63.19;99770.20;130006;1270;108644;-70
2022/08/19 09:51:21;;;;;;;8.40;7.30;;;;;;;27.84;63.45;99765.54;130029;1270;108797;-71
2022/08/19 09:54:27;;;;;;;7.60;6.90;;;;;;;27.86;63.26;99763.98;129943;1270;108240;-70
2022/08/19 09:57:32;;;;;;;7.60;6.90;;;;;;;27.83;63.44;99762.45;130012;1270;108909;-70
2022/08/19 10:00:39;;;;;;;9.10;7.70;;;;;;;27.83;62.70;99761.91;130048;1271;108884;-70
2022/08/19 10:03:47;;;;;;;7.80;7.00;;;;;;;27.88;62.81;99757.41;130010;1270;109702;-71
2022/08/19 10:06:56;;;;;;;7.70;7.00;;;;;;;27.88;62.34;99750.98;129929;1271;108841;-70
2022/08/19 10:10:02;;;;;;;7.90;7.10;;;;;;;27.92;62.59;99752.15;129776;1271;109599;-70
2022/08/19 10:13:07;;;;;;;8.00;7.20;;;;;;;27.98;62.46;99756.62;129924;1271;108888;-70
2022/08/19 10:16:17;;;;;;;7.70;6.90;;;;;;;28.07;62.21;99756.69;129945;1271;108694;-70
2022/08/19 10:19:24;;;;;;;8.60;7.20;;;;;;;28.17;62.29;99742.87;129901;1271;108709;-71
2022/08/19 10:22:30;;;;;;;9.60;7.20;;;;;;;28.23;61.99;99738.23;129827;1271;109308;-71
2022/08/19 10:25:35;;;;;;;7.80;7.00;;;;;;;28.27;61.68;99742.87;129909;1271;108632;-71
2022/08/19 10:28:41;;;;;;;7.80;7.00;;;;;;;28.29;61.78;99739.34;129869;1271;108761;-70
2022/08/19 10:31:47;;;;;;;8.10;7.10;;;;;;;28.26;61.80;99735.30;129844;1271;108802;-71
2022/08/19 10:34:53;;;;;;;9.10;6.70;;;;;;;28.27;61.53;99733.42;129979;1271;108657;-70
2022/08/19 10:38:01;;;;;;;7.80;6.90;;;;;;;28.31;61.50;99736.65;129838;1271;109463;-70
2022/08/19 10:41:15;;;;;;;8.00;7.20;;;;;;;28.37;61.33;99739.79;130052;1270;108874;-70
2022/08/19 10:44:21;;;;;;;8.90;7.50;;;;;;;28.33;61.32;99741.34;130029;1270;108770;-71
2022/08/19 10:47:26;;;;;;;8.10;7.30;;;;;;;28.35;61.25;99735.19;129862;1271;108728;-70
2022/08/19 10:53:56;;;;;;;8.40;7.40;;;;;;;28.32;60.25;99730.94;129814;1271;109605;-70
2022/08/19 10:57:01;;;;;;;8.10;7.20;;;;;;;28.25;60.57;99729.71;129766;1271;108617;-72
2022/08/19 11:00:09;;;;;;;8.50;7.30;;;;;;;28.35;60.68;99727.12;129935;1271;109031;-73
2022/08/19 11:03:14;;;;;;;8.30;7.10;;;;;;;28.55;60.56;99727.06;130136;1271;108977;-72
2022/08/19 11:06:21;;;;;;;8.40;7.20;;;;;;;28.74;60.37;99730.45;129941;1271;108803;-72
2022/08/19 11:09:28;;;;;;;8.00;7.00;;;;;;;28.92;60.15;99729.04;129966;1271;108293;-72
2022/08/19 11:12:33;;;;;;;8.50;7.10;;;;;;;29.05;59.62;99726.45;129954;1271;108905;-72
2022/08/19 11:15:39;;;;;;;7.50;6.80;;;;;;;29.18;59.00;99727.95;129945;1271;107717;-72
2022/08/19 11:18:49;;;;;;;7.60;6.80;;;;;;;29.30;58.53;99723.48;130080;1271;108912;-72
2022/08/19 11:21:55;;;;;;;9.00;6.90;;;;;;;29.40;58.41;99721.08;130112;1271;108670;-72
2022/08/19 11:25:00;;;;;;;8.30;7.30;;;;;;;29.52;58.40;99715.38;130115;1271;108716;-72
2022/08/19 11:28:05;;;;;;;9.90;8.40;;;;;;;29.66;58.45;99713.84;130027;1271;108963;-73
2022/08/19 11:31:14;;;;;;;7.50;6.70;;;;;;;29.78;58.33;99709.83;130015;1271;109332;-73
2022/08/19 11:34:22;;;;;;;9.50;7.10;;;;;;;29.90;58.42;99712.42;130137;1271;108970;-72
2022/08/19 11:37:27;;;;;;;8.20;7.40;;;;;;;29.99;57.86;99709.84;129982;1271;109067;-73
2022/08/19 11:40:33;;;;;;;9.30;7.00;;;;;;;30.06;57.65;99705.01;129951;1271;108659;-72
2022/08/19 11:43:39;;;;;;;11.30;7.00;;;;;;;30.13;57.89;99703.09;129968;1271;107015;-73
2022/08/19 11:46:46;;;;;;;8.60;7.60;;;;;;;30.22;57.74;99700.88;129986;1271;108827;-73
2022/08/19 11:49:53;;;;;;;9.30;7.50;;;;;;;30.26;57.22;99698.88;129901;1271;108706;-72
2022/08/19 11:52:59;;;;;;;9.50;7.80;;;;;;;30.31;57.17;99697.00;129930;1271;109575;-72
2022/08/19 11:56:07;;;;;;;8.30;7.30;;;;;;;30.40;57.39;99690.23;129937;1271;108832;-72
2022/08/19 11:59:12;;;;;;;10.90;7.20;;;;;;;30.43;56.48;99686.83;130074;1270;108702;-72
2022/08/19 12:02:18;;;;;;;14.40;8.70;;;;;;;30.45;56.00;99686.84;130012;1270;108616;-72
2022/08/19 12:05:24;;;;;;;8.90;7.50;;;;;;;30.46;56.51;99682.30;130066;1271;108689;-73
2022/08/19 12:08:29;;;;;;;8.30;7.50;;;;;;;30.52;56.05;99673.73;130038;1270;108767;-74
2022/08/19 12:11:36;;;;;;;9.60;7.50;;;;;;;30.56;55.58;99672.91;130084;1271;108983;-72
2022/08/19 12:14:42;;;;;;;8.80;7.20;;;;;;;30.57;55.55;99677.17;130056;1271;108882;-72
2022/08/19 12:17:47;;;;;;;8.30;7.20;;;;;;;30.59;55.55;99673.20;130084;1271;108886;-72
2022/08/19 12:20:55;;;;;;;7.80;7.00;;;;;;;30.62;55.19;99674.52;130024;1270;108879;-72
2022/08/19 12:24:02;;;;;;;10.50;6.90;;;;;;;30.63;55.00;99674.98;130109;1270;108967;-73
2022/08/19 12:27:07;;;;;;;8.10;7.30;;;;;;;30.65;54.65;99675.23;130163;1270;108518;-72
2022/08/19 12:30:15;;;;;;;8.20;7.40;;;;;;;30.64;54.81;99673.66;130108;1271;109010;-72
2022/08/19 12:33:24;;;;;;;7.60;6.90;;;;;;;30.62;54.54;99666.58;130100;1270;108875;-72
2022/08/19 12:36:29;;;;;;;7.90;7.20;;;;;;;30.62;53.94;99657.48;130053;1271;108845;-72
2022/08/19 12:39:38;;;;;;;11.60;7.20;;;;;;;30.64;53.95;99667.16;130031;1271;108859;-72
2022/08/19 12:42:44;;;;;;;11.50;7.00;;;;;;;30.67;54.00;99663.03;130072;1270;108684;-72
2022/08/19 12:45:50;;;;;;;7.50;6.90;;;;;;;30.73;53.74;99663.36;130215;1271;107494;-72
2022/08/19 12:48:57;;;;;;;9.50;6.90;;;;;;;30.80;53.93;99665.77;130134;1271;107650;-72
2022/08/19 12:52:03;;;;;;;7.20;6.50;;;;;;;30.87;53.91;99661.75;130075;1270;108678;-71
2022/08/19 12:55:11;;;;;;;7.60;6.70;;;;;;;30.93;53.56;99660.08;130097;1271;107242;-72
2022/08/19 12:58:17;;;;;;;7.30;6.50;;;;;;;30.98;53.29;99664.61;130025;1271;108743;-71
2022/08/19 13:01:22;;;;;;;7.00;6.30;;;;;;;31.00;53.07;99659.45;130216;1271;108921;-71
2022/08/19 13:04:28;;;;;;;9.50;6.60;;;;;;;31.01;52.87;99656.94;130148;1271;108666;-72
2022/08/19 13:07:35;;;;;;;8.40;6.90;;;;;;;31.04;52.77;99653.80;130035;1271;108684;-71
2022/08/19 13:10:41;;;;;;;8.30;6.40;;;;;;;31.08;52.74;99652.84;130020;1271;107861;-72
2022/08/19 13:13:50;;;;;;;7.30;6.10;;;;;;;31.13;52.59;99651.05;130020;1270;109793;-71
2022/08/19 13:16:55;;;;;;;8.50;6.50;;;;;;;31.15;52.22;99646.77;130188;1270;108802;-72
2022/08/19 13:20:00;;;;;;;7.80;6.00;;;;;;;31.17;52.25;99656.91;130057;1270;108806;-72
2022/08/19 13:23:07;;;;;;;7.00;6.40;;;;;;;31.20;52.18;99661.59;129999;1271;107320;-72
2022/08/19 13:26:13;;;;;;;7.90;6.50;;;;;;;31.22;51.33;99662.48;129943;1271;109678;-72
2022/08/19 13:36:07;;;;;;;10.30;6.30;;;;;;;31.28;50.77;99659.20;129995;1271;108710;-72
2022/08/19 13:39:13;;;;;;;6.90;6.10;;;;;;;31.27;50.40;99663.27;130074;1271;109539;-72
2022/08/19 13:42:19;;;;;;;7.70;6.40;;;;;;;31.27;50.47;99662.98;130038;1271;108748;-72
2022/08/19 13:45:27;;;;;;;7.20;6.20;;;;;;;31.29;50.41;99655.30;130089;1271;108608;-72
2022/08/19 13:48:32;;;;;;;8.50;6.30;;;;;;;31.31;50.67;99656.33;130070;1271;108668;-72
2022/08/19 13:51:40;;;;;;;8.70;6.50;;;;;;;31.34;50.86;99657.09;130082;1271;107953;-72
2022/08/19 13:54:45;;;;;;;8.10;6.20;;;;;;;31.35;50.20;99658.23;130027;1271;108655;-73
2022/08/19 13:57:53;;;;;;;7.00;6.30;;;;;;;31.34;49.59;99654.50;130231;1271;108838;-71
2022/08/19 14:01:00;;;;;;;6.90;6.00;;;;;;;31.35;50.17;99658.16;130120;1271;108639;-71
2022/08/19 14:04:06;;;;;;;6.60;5.90;;;;;;;31.37;49.95;99657.23;129918;1271;108603;-71
2022/08/19 14:07:12;;;;;;;6.90;6.00;;;;;;;31.39;49.95;99658.86;130218;1271;108571;-70
2022/08/19 14:10:18;;;;;;;7.80;7.00;;;;;;;31.41;49.95;99659.21;129908;1271;108952;-79
2022/08/19 14:13:25;;;;;;;7.10;5.90;;;;;;;31.41;50.11;99658.15;129924;1271;108561;-76
2022/08/19 14:16:31;;;;;;;6.80;6.10;;;;;;;31.43;49.98;99658.73;130131;1271;108870;-71
2022/08/19 14:19:36;;;;;;;7.20;6.40;;;;;;;31.44;49.62;99651.98;130282;1271;108657;-71
2022/08/19 14:22:44;;;;;;;6.80;6.20;;;;;;;31.40;49.48;99652.66;130034;1271;109823;-71
2022/08/19 14:25:49;;;;;;;7.20;6.30;;;;;;;31.38;49.29;99648.18;130033;1271;109034;-72
2022/08/19 14:28:57;;;;;;;10.70;6.30;;;;;;;31.35;49.16;99647.40;130036;1271;108674;-72
2022/08/19 14:32:06;;;;;;;10.00;5.80;;;;;;;31.33;49.24;99647.12;130183;1271;108694;-71
2022/08/19 14:35:14;;;;;;;6.40;5.70;;;;;;;31.30;48.83;99647.38;129834;1271;107399;-71
2022/08/19 14:38:21;;;;;;;6.80;6.10;;;;;;;31.31;49.03;99644.84;129958;1271;108759;-69
2022/08/19 14:41:30;;;;;;;8.70;6.30;;;;;;;31.30;48.85;99642.77;130030;1271;108858;-70